createdAt,value
2022-08-30T00:02:09.726Z,64.30
2022-08-30T00:04:42.134Z,64.20
2022-08-30T00:07:16.767Z,64.40
2022-08-30T00:09:49.457Z,64.10
2022-08-30T00:12:22.018Z,64.00
2022-08-30T00:14:54.893Z,64.10
2022-08-30T00:17:27.610Z,63.90
2022-08-30T00:20:00.210Z,63.70
2022-08-30T00:22:33.379Z,63.90
2022-08-30T00:25:07.365Z,63.60
2022-08-30T00:27:40.152Z,63.50
2022-08-30T00:30:14.036Z,63.40
2022-08-30T00:32:48.115Z,63.60
2022-08-30T00:35:21.683Z,63.20
2022-08-30T00:37:54.363Z,63.10
2022-08-30T00:40:28.800Z,63.10
2022-08-30T00:43:05.800Z,63.30
2022-08-30T00:45:39.156Z,63.00
2022-08-30T00:48:12.045Z,62.80
2022-08-30T00:50:48.908Z,62.80
2022-08-30T00:53:26.233Z,62.70
2022-08-30T00:56:00.647Z,62.70
2022-08-30T00:58:37.305Z,62.60
2022-08-30T01:01:11.631Z,62.60
2022-08-30T01:03:45.320Z,62.50
2022-08-30T01:06:18.592Z,62.40
2022-08-30T01:08:51.218Z,62.30
2022-08-30T01:11:25.188Z,62.30
2022-08-30T01:13:58.570Z,62.20
2022-08-30T01:16:32.925Z,62.30
2022-08-30T01:19:10.952Z,62.10
2022-08-30T01:22:00.492Z,62.10
2022-08-30T01:24:33.778Z,62.00
2022-08-30T01:27:06.490Z,62.00
2022-08-30T01:29:38.958Z,61.90
2022-08-30T01:32:28.932Z,62.20
2022-08-30T01:35:02.141Z,62.00
2022-08-30T01:37:36.746Z,62.00
2022-08-30T01:40:10.609Z,62.00
2022-08-30T01:42:43.461Z,62.10
2022-08-30T01:45:16.130Z,62.10
2022-08-30T01:47:48.819Z,62.00
2022-08-30T01:50:21.382Z,62.90
2022-08-30T01:52:54.175Z,62.30
2022-08-30T01:55:27.054Z,62.20
2022-08-30T01:57:59.738Z,62.10
2022-08-30T02:00:32.624Z,62.10
2022-08-30T02:03:06.109Z,62.30
2022-08-30T02:05:38.679Z,62.20
2022-08-30T02:08:11.177Z,62.10
2022-08-30T02:10:44.974Z,62.30
2022-08-30T02:13:17.843Z,62.20
2022-08-30T02:15:50.581Z,62.20
2022-08-30T02:18:28.344Z,62.20
2022-08-30T02:21:01.453Z,62.10
2022-08-30T02:23:34.230Z,62.00
2022-08-30T02:26:07.032Z,61.90
2022-08-30T02:28:42.735Z,62.00
2022-08-30T02:31:23.508Z,61.80
2022-08-30T02:33:56.334Z,61.60
2022-08-30T02:36:29.177Z,61.60
2022-08-30T02:39:01.684Z,61.50
2022-08-30T02:41:34.452Z,61.80
2022-08-30T02:44:07.396Z,61.40
2022-08-30T02:46:40.523Z,61.70
2022-08-30T02:49:32.658Z,61.50
2022-08-30T02:52:06.268Z,61.50
2022-08-30T02:54:38.856Z,61.50
2022-08-30T02:57:16.419Z,61.40
2022-08-30T02:59:53.461Z,61.30
2022-08-30T03:02:26.388Z,61.30
2022-08-30T03:04:59.077Z,61.30
2022-08-30T03:07:31.767Z,61.20
2022-08-30T03:10:04.968Z,61.50
2022-08-30T03:12:38.227Z,61.40
2022-08-30T03:15:14.908Z,61.30
2022-08-30T03:17:47.611Z,61.30
2022-08-30T03:20:20.599Z,61.40
2022-08-30T03:22:53.594Z,61.60
2022-08-30T03:25:26.476Z,61.50
2022-08-30T03:27:58.935Z,61.50
2022-08-30T03:30:32.566Z,61.70
2022-08-30T03:33:05.139Z,61.60
2022-08-30T03:35:39.743Z,61.80
2022-08-30T03:38:12.420Z,61.60
2022-08-30T03:40:45.742Z,61.70
2022-08-30T03:43:19.518Z,61.70
2022-08-30T03:45:52.009Z,61.70
2022-08-30T03:48:26.400Z,61.80
2022-08-30T03:50:58.983Z,61.70
2022-08-30T03:53:31.576Z,61.70
2022-08-30T03:56:04.858Z,61.70
2022-08-30T03:58:37.635Z,61.80
2022-08-30T04:01:10.143Z,61.70
2022-08-30T04:03:42.890Z,61.90
2022-08-30T04:06:15.487Z,61.80
2022-08-30T04:08:48.192Z,61.90
2022-08-30T04:11:21.685Z,61.90
2022-08-30T04:13:56.390Z,61.80
2022-08-30T04:16:29.123Z,61.80
2022-08-30T04:19:01.652Z,61.90
2022-08-30T04:21:35.082Z,62.00
2022-08-30T04:24:15.491Z,62.00
2022-08-30T04:26:48.091Z,62.00
2022-08-30T04:29:20.755Z,62.00
2022-08-30T04:31:53.694Z,62.00
2022-08-30T04:34:26.528Z,62.00
2022-08-30T04:36:59.098Z,62.00
2022-08-30T04:39:31.939Z,62.10
2022-08-30T04:42:04.884Z,62.10
2022-08-30T04:44:37.962Z,62.10
2022-08-30T04:47:10.675Z,62.10
2022-08-30T04:49:43.328Z,62.20
2022-08-30T04:52:16.110Z,62.20
2022-08-30T04:54:48.480Z,62.10
2022-08-30T04:57:21.164Z,62.20
2022-08-30T04:59:54.554Z,62.20
2022-08-30T05:02:27.470Z,62.10
2022-08-30T05:05:18.592Z,62.10
2022-08-30T05:07:51.219Z,62.60
2022-08-30T05:10:24.547Z,62.90
2022-08-30T05:12:57.320Z,63.00
2022-08-30T05:15:29.777Z,62.70
2022-08-30T05:18:03.483Z,62.60
2022-08-30T05:20:38.608Z,62.20
2022-08-30T05:23:12.236Z,61.60
2022-08-30T05:25:44.911Z,61.00
2022-08-30T05:28:17.695Z,60.50
2022-08-30T05:30:50.568Z,60.20
2022-08-30T05:33:23.168Z,59.80
2022-08-30T05:35:56.042Z,59.40
2022-08-30T05:38:28.712Z,59.10
2022-08-30T05:41:05.162Z,59.00
2022-08-30T05:43:41.132Z,58.70
2022-08-30T05:46:19.912Z,58.50
2022-08-30T05:48:52.857Z,58.40
2022-08-30T05:51:28.999Z,58.30
2022-08-30T05:54:01.823Z,58.10
2022-08-30T05:56:39.503Z,57.70
2022-08-30T05:59:14.211Z,57.30
2022-08-30T06:01:48.645Z,57.30
2022-08-30T06:04:21.427Z,57.20
2022-08-30T06:06:54.338Z,57.30
2022-08-30T06:09:26.983Z,57.20
2022-08-30T06:11:59.882Z,57.10
2022-08-30T06:14:32.561Z,57.10
2022-08-30T06:17:05.681Z,57.00
2022-08-30T06:19:38.283Z,56.80
2022-08-30T06:22:11.026Z,56.70
2022-08-30T06:24:57.079Z,56.80
2022-08-30T06:27:31.529Z,56.80
2022-08-30T06:30:11.212Z,56.80
2022-08-30T06:32:44.365Z,56.60
2022-08-30T06:35:17.241Z,56.40
2022-08-30T06:37:50.013Z,56.20
2022-08-30T06:40:23.200Z,55.90
2022-08-30T06:42:56.107Z,55.40
2022-08-30T06:45:31.221Z,55.20
2022-08-30T06:48:06.801Z,55.00
2022-08-30T06:50:42.209Z,54.60
2022-08-30T06:53:14.712Z,54.60
2022-08-30T06:55:55.104Z,54.20
2022-08-30T06:58:29.738Z,54.00
2022-08-30T07:01:02.472Z,53.50
2022-08-30T07:03:38.373Z,53.20
2022-08-30T07:06:11.715Z,52.60
2022-08-30T07:08:44.212Z,52.40
2022-08-30T07:11:26.761Z,52.00
2022-08-30T07:14:01.752Z,51.70
2022-08-30T07:16:35.594Z,51.40
2022-08-30T07:19:08.112Z,52.00
2022-08-30T07:21:51.292Z,51.10
2022-08-30T07:24:25.214Z,50.80
2022-08-30T07:26:57.828Z,50.60
2022-08-30T07:29:30.406Z,50.50
2022-08-30T07:32:03.190Z,50.30
2022-08-30T07:34:35.958Z,50.10
2022-08-30T07:37:08.611Z,50.00
2022-08-30T07:39:45.810Z,50.20
2022-08-30T07:42:20.267Z,50.10
2022-08-30T07:44:56.656Z,50.10
2022-08-30T07:47:29.881Z,49.70
2022-08-30T07:50:03.057Z,49.40
2022-08-30T07:55:13.380Z,49.50
2022-08-30T07:57:46.071Z,49.60
2022-08-30T08:00:18.715Z,49.70
2022-08-30T08:02:51.288Z,49.60
2022-08-30T08:05:24.955Z,49.30
2022-08-30T08:07:57.789Z,49.30
2022-08-30T08:10:30.383Z,49.40
2022-08-30T08:13:02.899Z,49.20
2022-08-30T08:15:35.995Z,50.10
2022-08-30T08:18:08.779Z,49.30
2022-08-30T08:20:41.572Z,49.30
2022-08-30T08:23:14.300Z,49.10
2022-08-30T08:25:46.892Z,48.70
2022-08-30T08:28:19.732Z,48.90
2022-08-30T08:30:53.178Z,48.80
2022-08-30T08:33:25.828Z,48.70
2022-08-30T08:35:58.454Z,48.50
2022-08-30T08:38:31.342Z,48.30
2022-08-30T08:41:40.551Z,48.20
2022-08-30T08:44:44.580Z,48.40
2022-08-30T08:47:29.500Z,48.20
2022-08-30T08:50:10.844Z,48.20
2022-08-30T08:53:13.383Z,48.20
2022-08-30T08:55:54.406Z,48.00
2022-08-30T08:58:37.951Z,47.40
2022-08-30T09:01:16.001Z,47.50
2022-08-30T09:03:49.650Z,47.40
2022-08-30T09:06:45.081Z,47.60
2022-08-30T09:09:24.440Z,47.50
2022-08-30T09:11:57.407Z,47.30
2022-08-30T09:14:46.037Z,47.20
2022-08-30T09:17:21.410Z,48.00
2022-08-30T09:19:54.458Z,47.20
2022-08-30T09:22:34.719Z,47.20
2022-08-30T09:25:13.069Z,46.90
2022-08-30T09:27:49.266Z,46.80
2022-08-30T09:30:28.133Z,46.70
2022-08-30T09:33:21.106Z,46.70
2022-08-30T09:35:54.685Z,46.70
2022-08-30T09:38:36.114Z,46.70
2022-08-30T09:41:49.475Z,46.70
2022-08-30T09:44:28.359Z,46.90
2022-08-30T09:47:01.784Z,46.60
2022-08-30T09:49:43.743Z,46.60
2022-08-30T09:52:46.183Z,46.40
2022-08-30T09:56:00.475Z,46.20
2022-08-30T09:58:45.703Z,46.20
2022-08-30T10:01:28.385Z,46.10
2022-08-30T10:04:05.079Z,46.10
2022-08-30T10:07:11.314Z,45.70
2022-08-30T10:10:01.245Z,45.40
2022-08-30T10:13:01.715Z,45.40
2022-08-30T10:15:42.967Z,45.60
2022-08-30T10:18:53.252Z,45.60
2022-08-30T10:21:36.128Z,45.60
2022-08-30T10:24:20.785Z,45.20
2022-08-30T10:27:08.165Z,45.10
2022-08-30T10:29:49.724Z,45.40
2022-08-30T10:32:42.074Z,45.40
2022-08-30T10:35:23.435Z,45.20
2022-08-30T10:38:22.265Z,45.50
2022-08-30T10:41:15.823Z,45.60
2022-08-30T10:43:56.948Z,45.60
2022-08-30T10:47:06.714Z,46.00
2022-08-30T10:49:44.459Z,46.40
2022-08-30T10:52:28.909Z,46.30
2022-08-30T10:55:10.055Z,46.30
2022-08-30T10:57:42.988Z,47.00
2022-08-30T11:00:33.464Z,46.90
2022-08-30T11:03:37.412Z,47.10
2022-08-30T11:06:27.410Z,47.00
2022-08-30T11:09:41.651Z,47.30
2022-08-30T11:12:20.348Z,48.10
2022-08-30T11:14:53.680Z,48.80
2022-08-30T11:17:33.955Z,48.70
2022-08-30T11:20:21.553Z,48.70
2022-08-30T11:23:19.063Z,49.00
2022-08-30T11:26:15.968Z,49.40
2022-08-30T11:28:53.100Z,50.00
2022-08-30T11:31:30.032Z,50.10
2022-08-30T11:34:03.680Z,50.20
2022-08-30T11:39:48.935Z,50.40
2022-08-30T11:42:37.329Z,50.80
2022-08-30T11:45:24.729Z,50.90
2022-08-30T11:48:05.897Z,50.70
2022-08-30T11:51:07.087Z,50.80
2022-08-30T11:53:43.238Z,50.80
2022-08-30T11:56:37.378Z,51.00
2022-08-30T11:59:37.462Z,51.10
2022-08-30T12:02:10.385Z,51.70
2022-08-30T12:04:48.073Z,52.00
2022-08-30T12:07:56.700Z,52.40
2022-08-30T12:11:00.208Z,52.60
2022-08-30T12:13:39.426Z,52.50
2022-08-30T12:16:14.264Z,52.60
2022-08-30T12:19:01.184Z,52.60
2022-08-30T12:21:44.901Z,52.60
2022-08-30T12:24:32.876Z,52.50
2022-08-30T12:27:32.765Z,52.60
2022-08-30T12:30:08.628Z,52.50
2022-08-30T12:32:48.732Z,52.50
2022-08-30T12:35:28.525Z,52.30
2022-08-30T12:38:06.504Z,52.20
2022-08-30T12:40:50.145Z,52.20
2022-08-30T12:43:38.857Z,52.20
2022-08-30T12:46:16.853Z,52.40
2022-08-30T12:48:50.108Z,52.60
2022-08-30T12:51:41.733Z,53.00
2022-08-30T12:54:21.727Z,53.00
2022-08-30T12:57:10.007Z,53.20
2022-08-30T13:00:01.732Z,53.40
2022-08-30T13:02:46.959Z,53.70
2022-08-30T13:05:44.950Z,53.80
2022-08-30T13:08:28.644Z,54.00
2022-08-30T13:11:07.975Z,54.50
2022-08-30T13:13:52.207Z,54.90
2022-08-30T13:16:38.822Z,55.10
2022-08-30T13:19:56.660Z,55.20
2022-08-30T13:22:38.299Z,55.20
2022-08-30T13:25:11.921Z,55.40
2022-08-30T13:27:44.720Z,55.60
2022-08-30T13:30:17.248Z,55.90
2022-08-30T13:32:49.831Z,55.70
2022-08-30T13:35:22.247Z,55.90
2022-08-30T13:37:55.562Z,56.00
2022-08-30T13:40:28.208Z,56.20
2022-08-30T13:43:00.880Z,56.60
2022-08-30T13:45:41.380Z,56.60
2022-08-30T13:48:17.410Z,56.80
2022-08-30T13:50:57.312Z,56.80
2022-08-30T13:56:24.504Z,57.10
2022-08-30T13:59:02.870Z,57.30
2022-08-30T14:02:07.642Z,57.50
2022-08-30T14:04:28.755Z,57.60
2022-08-30T14:07:20.346Z,57.70
2022-08-30T14:09:53.656Z,57.90
2022-08-30T14:15:19.194Z,58.30
2022-08-30T14:17:51.731Z,58.50
2022-08-30T14:20:24.588Z,58.60
2022-08-30T14:22:59.349Z,58.60
2022-08-30T14:25:32.055Z,58.70
2022-08-30T14:28:07.075Z,58.90
2022-08-30T14:30:39.696Z,59.20
2022-08-30T14:33:12.297Z,59.20
2022-08-30T14:35:46.019Z,59.30
2022-08-30T14:38:18.929Z,59.50
2022-08-30T14:40:51.542Z,59.60
2022-08-30T14:43:24.063Z,59.70
2022-08-30T14:45:59.168Z,59.60
2022-08-30T14:48:31.800Z,59.80
2022-08-30T14:51:11.793Z,60.00
2022-08-30T14:53:45.270Z,59.90
2022-08-30T14:56:20.376Z,60.20
2022-08-30T14:59:00.596Z,60.30
2022-08-30T15:01:34.028Z,60.40
2022-08-30T15:04:10.816Z,60.60
2022-08-30T15:06:46.736Z,60.70
2022-08-30T15:09:23.239Z,60.80
2022-08-30T15:11:59.785Z,61.00
2022-08-30T15:14:32.716Z,61.00
2022-08-30T15:17:05.428Z,61.00
2022-08-30T15:19:39.642Z,61.30
2022-08-30T15:22:12.417Z,61.50
2022-08-30T15:24:48.868Z,61.50
2022-08-30T15:27:21.757Z,61.60
2022-08-30T15:29:54.138Z,61.60
2022-08-30T15:32:26.711Z,61.40
2022-08-30T15:35:00.452Z,61.80
2022-08-30T15:37:33.254Z,61.70
2022-08-30T15:40:07.898Z,61.80
2022-08-30T15:42:40.579Z,62.10
2022-08-30T15:45:14.894Z,62.20
2022-08-30T15:47:50.652Z,62.20
2022-08-30T15:50:23.459Z,62.20
2022-08-30T15:52:56.135Z,62.30
2022-08-30T15:55:29.412Z,63.20
2022-08-30T15:58:01.991Z,62.20
2022-08-30T16:00:34.961Z,62.20
2022-08-30T16:03:07.539Z,62.30
2022-08-30T16:05:39.920Z,62.30
2022-08-30T16:08:12.678Z,62.20
2022-08-30T16:10:52.017Z,62.20
2022-08-30T16:13:24.654Z,62.40
2022-08-30T16:15:59.942Z,62.50
2022-08-30T16:18:32.958Z,62.20
2022-08-30T16:21:08.757Z,62.30
2022-08-30T16:23:44.428Z,62.40
2022-08-30T16:26:20.908Z,62.60
2022-08-30T16:28:55.682Z,62.60
2022-08-30T16:31:30.572Z,62.70
2022-08-30T16:34:04.686Z,62.70
2022-08-30T16:36:39.804Z,62.80
2022-08-30T16:39:13.758Z,62.80
2022-08-30T16:41:46.738Z,62.80
2022-08-30T16:44:21.181Z,62.80
2022-08-30T16:46:54.256Z,62.90
2022-08-30T16:49:27.106Z,62.90
2022-08-30T16:51:59.777Z,63.00
2022-08-30T16:54:32.624Z,63.20
2022-08-30T16:57:06.495Z,63.30
2022-08-30T16:59:39.336Z,63.40
2022-08-30T17:02:12.007Z,63.40
2022-08-30T17:04:46.289Z,64.30
2022-08-30T17:07:25.046Z,63.60
2022-08-30T17:09:58.105Z,63.70
2022-08-30T17:12:30.646Z,63.70
2022-08-30T17:15:05.678Z,63.50
2022-08-30T17:17:38.964Z,63.60
2022-08-30T17:20:16.213Z,63.70
2022-08-30T17:22:49.459Z,63.70
2022-08-30T17:25:22.091Z,63.70
2022-08-30T17:27:54.852Z,63.70
2022-08-30T17:30:28.112Z,63.60
2022-08-30T17:33:01.016Z,63.70
2022-08-30T17:35:33.711Z,63.80
2022-08-30T17:38:06.448Z,63.80
2022-08-30T17:40:39.431Z,63.80
2022-08-30T17:43:13.086Z,63.90
2022-08-30T17:45:45.912Z,63.90
2022-08-30T17:48:21.741Z,63.90
2022-08-30T17:50:56.718Z,63.90
2022-08-30T17:53:29.602Z,64.00
2022-08-30T17:56:03.420Z,63.90
2022-08-30T17:58:36.511Z,63.90
2022-08-30T18:01:14.570Z,63.90
2022-08-30T18:03:47.680Z,64.80
2022-08-30T18:06:24.580Z,64.00
2022-08-30T18:09:00.369Z,64.00
2022-08-30T18:11:36.154Z,63.90
2022-08-30T18:14:12.851Z,64.00
2022-08-30T18:16:53.135Z,64.00
2022-08-30T18:19:29.573Z,64.00
2022-08-30T18:22:03.194Z,64.10
2022-08-30T18:24:36.655Z,64.10
2022-08-30T18:27:09.392Z,64.00
2022-08-30T18:29:42.298Z,64.10
2022-08-30T18:32:15.731Z,64.20
2022-08-30T18:34:48.487Z,64.20
2022-08-30T18:37:20.829Z,64.30
2022-08-30T18:39:58.030Z,64.20
2022-08-30T18:42:31.602Z,64.30
2022-08-30T18:47:57.655Z,64.30
2022-08-30T18:50:30.064Z,64.40
2022-08-30T18:53:03.291Z,64.20
2022-08-30T18:55:35.928Z,64.10
2022-08-30T18:58:08.763Z,64.30
2022-08-30T19:00:43.736Z,64.20
2022-08-30T19:03:16.346Z,64.30
2022-08-30T19:05:48.794Z,64.40
2022-08-30T19:08:22.234Z,64.30
2022-08-30T19:10:57.875Z,64.50
2022-08-30T19:13:32.952Z,64.50
2022-08-30T19:16:07.570Z,64.50
2022-08-30T19:18:44.586Z,64.70
2022-08-30T19:21:17.642Z,64.70
2022-08-30T19:23:55.221Z,64.80
2022-08-30T19:26:27.979Z,64.80
2022-08-30T19:29:02.262Z,64.90
2022-08-30T19:31:35.417Z,64.90
2022-08-30T19:34:07.989Z,65.00
2022-08-30T19:36:40.497Z,65.00
2022-08-30T19:39:13.185Z,64.80
2022-08-30T19:41:45.834Z,64.80
2022-08-30T19:44:19.184Z,65.00
2022-08-30T19:46:53.307Z,65.00
2022-08-30T19:49:26.682Z,65.10
2022-08-30T19:51:59.829Z,65.20
2022-08-30T19:54:32.406Z,65.30
2022-08-30T19:57:05.926Z,65.30
2022-08-30T19:59:39.149Z,65.40
2022-08-30T20:02:13.696Z,65.50
2022-08-30T20:04:46.608Z,65.40
2022-08-30T20:07:26.186Z,65.60
2022-08-30T20:10:03.156Z,65.60
2022-08-30T20:12:36.514Z,65.60
2022-08-30T20:15:13.470Z,65.70
2022-08-30T20:18:05.770Z,65.80
2022-08-30T20:20:39.287Z,65.80
2022-08-30T20:23:11.959Z,65.80
2022-08-30T20:24:29.405Z,64.30
2022-08-30T20:25:46.599Z,65.90
2022-08-30T20:28:19.624Z,65.90
2022-08-30T20:30:53.405Z,65.70
2022-08-30T20:33:27.747Z,65.90
2022-08-30T20:36:02.632Z,66.00
2022-08-30T20:38:35.193Z,66.10
2022-08-30T20:41:11.724Z,66.10
2022-08-30T20:43:45.714Z,65.90
2022-08-30T20:46:20.808Z,66.10
2022-08-30T20:48:54.502Z,66.20
2022-08-30T20:51:28.336Z,66.30
2022-08-30T20:54:01.749Z,66.30
2022-08-30T20:56:34.751Z,66.40
2022-08-30T20:59:07.343Z,66.40
2022-08-30T21:01:39.937Z,66.50
2022-08-30T21:04:13.464Z,66.20
2022-08-30T21:06:46.292Z,66.40
2022-08-30T21:09:18.887Z,66.50
2022-08-30T21:11:53.901Z,66.40
2022-08-30T21:14:27.212Z,66.50
2022-08-30T21:16:59.820Z,66.60
2022-08-30T21:19:32.547Z,66.60
2022-08-30T21:22:06.243Z,66.60
2022-08-30T21:24:38.998Z,66.70
2022-08-30T21:27:11.292Z,66.70
2022-08-30T21:29:44.664Z,66.50
2022-08-30T21:32:17.500Z,66.60
2022-08-30T21:35:08.567Z,66.70
2022-08-30T21:37:41.059Z,66.70
2022-08-30T21:40:14.827Z,66.70
2022-08-30T21:42:47.591Z,66.60
2022-08-30T21:45:20.132Z,66.70
2022-08-30T21:47:52.754Z,66.60
2022-08-30T21:50:25.155Z,66.60
2022-08-30T21:52:57.839Z,66.50
2022-08-30T21:55:30.211Z,66.60
2022-08-30T21:58:03.509Z,66.40
2022-08-30T22:00:36.558Z,66.60
2022-08-30T22:03:08.962Z,66.60
2022-08-30T22:05:50.585Z,66.50
2022-08-30T22:08:23.162Z,66.60
2022-08-30T22:10:55.920Z,66.60
2022-08-30T22:13:28.507Z,66.60
2022-08-30T22:16:00.894Z,66.60
2022-08-30T22:18:33.739Z,66.50
2022-08-30T22:21:08.246Z,66.50
2022-08-30T22:23:41.294Z,66.50
2022-08-30T22:26:16.403Z,66.50
2022-08-30T22:28:48.986Z,66.50
2022-08-30T22:31:22.480Z,66.50
2022-08-30T22:33:56.080Z,66.30
2022-08-30T22:36:32.639Z,66.30
2022-08-30T22:39:07.869Z,66.40
2022-08-30T22:41:41.680Z,66.30
2022-08-30T22:44:14.309Z,66.30
2022-08-30T22:46:46.879Z,66.20
2022-08-30T22:49:19.493Z,66.10
2022-08-30T22:51:52.022Z,66.10
2022-08-30T22:54:24.647Z,66.00
2022-08-30T22:56:57.028Z,66.00
2022-08-30T22:59:31.546Z,65.80
2022-08-30T23:02:05.241Z,65.80
2022-08-30T23:04:38.668Z,65.70
2022-08-30T23:07:11.275Z,65.60
2022-08-30T23:09:43.712Z,65.50
2022-08-30T23:12:16.321Z,65.50
2022-08-30T23:14:48.882Z,65.40
2022-08-30T23:17:21.455Z,65.30
2022-08-30T23:19:59.439Z,65.30
2022-08-30T23:22:33.175Z,65.20
2022-08-30T23:25:25.374Z,65.10
2022-08-30T23:28:20.710Z,65.10
2022-08-30T23:31:11.897Z,65.00
2022-08-30T23:34:02.803Z,64.90
2022-08-30T23:36:54.169Z,64.80
2022-08-30T23:39:48.085Z,64.70
2022-08-30T23:42:39.389Z,64.60
2022-08-30T23:45:30.294Z,64.50
2022-08-30T23:48:21.682Z,64.40
2022-08-30T23:51:21.816Z,64.30
2022-08-30T23:54:13.075Z,64.20
2022-08-30T23:57:03.813Z,64.10
2022-08-30T23:59:55.583Z,64.00
